Terminal Aerodrome Forecast
Issued by NWS Sioux Falls, SD

Home | Current Version | Previous Version | Text Only | Print | Product List | Glossary Off
Versions: 1 2 3 4 5 6 7 8 9 10 11 12 13 14 15 16

000
FTUS43 KFSD 301130
TAFHON
TAF
KHON 301130Z 3012/0112 32017G24KT 6SM -SN OVC012
      TEMPO 3013/3017 4SM -SN OVC009
     FM301900 32016G24KT P6SM -SN OVC015
     FM010200 31012KT P6SM OVC015=

USA.gov is the U.S. government's official web portal to all federal, state and local government web resources and services.